Aughwick, Pennsylvania
Current Conditions -  °F | °C
As of 9:44 AM on Thursday 30 Oct 2014 (Local Time) from KAOO Reporting Station
Overcast Overcast  
Wind Chill:   Ceiling: 3200
Heat Index:   Visibility: 10mi
Dew Point:   Wind: 7mph
Humidity: 76%   Direction: 320°NW
Pressure: 30.07"   Gusts: NA
Location:  40.4281°N, 77.8329°W
Report Text: KAOO 301344Z AUTO 32006KT 10SM SCT027 OVC032 07/03 A3007 RMK AO2 T00720033
Loading
Personal Weather Stations






























Interactive Weather Map
Tropical Storm Tracking
New forecast layout! Learn more

10-Day Weather Forecast

Advertisements
Track Severe Weather on mobile